Time;durP1;ratioP1;P1;durP2;ratioP2;P2;SDS_P1;SDS_P2;PMS_P1;PMS_P2;Temp;Humidity;BMP_temperature;BMP_pressure;BME280_temperature;BME280_humidity;BME280_pressure;Samples;Min_cycle;Max_cycle;Signal;HPM_P1;HPM_P2
2022/10/09 00:01:18;;;;;;;29.00;14.73;;;13.90;99.90;;;;;;6141753;23;20044;-91
2022/10/09 00:03:48;;;;;;;23.58;13.75;;;13.90;99.90;;;;;;6141938;23;20091;-91
2022/10/09 00:06:30;;;;;;;26.52;14.52;;;13.90;99.90;;;;;;6140312;23;20353;-92
2022/10/09 00:09:00;;;;;;;24.70;14.25;;;13.90;99.90;;;;;;6141217;23;20008;-92
2022/10/09 00:11:29;;;;;;;23.73;15.32;;;13.80;99.90;;;;;;6164173;23;20009;-91
2022/10/09 00:13:57;;;;;;;23.92;14.95;;;13.80;99.90;;;;;;6141362;23;20450;-92
2022/10/09 00:16:24;;;;;;;26.20;15.02;;;13.80;99.90;;;;;;6143773;23;20091;-92
2022/10/09 00:18:51;;;;;;;23.75;14.57;;;13.90;99.90;;;;;;6141787;23;19997;-93
2022/10/09 00:21:30;;;;;;;25.35;13.88;;;13.90;99.90;;;;;;6141577;23;20013;-92
2022/10/09 00:24:02;;;;;;;22.98;13.70;;;13.90;99.90;;;;;;6139986;23;20009;-92
2022/10/09 00:26:29;;;;;;;18.88;14.05;;;13.90;99.90;;;;;;6140038;23;20019;-92
2022/10/09 00:28:56;;;;;;;23.17;13.90;;;13.90;99.90;;;;;;6139510;23;20033;-93
2022/10/09 00:31:23;;;;;;;23.00;13.68;;;13.90;99.90;;;;;;6139228;23;20105;-92
2022/10/09 00:33:49;;;;;;;20.85;12.40;;;13.90;99.90;;;;;;6139635;23;20013;-91
2022/10/09 00:36:21;;;;;;;20.30;12.93;;;13.90;99.90;;;;;;6139360;23;20009;-92
2022/10/09 00:38:48;;;;;;;23.73;13.07;;;13.90;99.90;;;;;;6163922;23;20012;-92
2022/10/09 00:41:19;;;;;;;21.20;12.98;;;13.90;99.90;;;;;;6138990;23;20092;-92
2022/10/09 00:43:54;;;;;;;17.67;13.27;;;13.90;99.90;;;;;;6139480;23;20057;-93
2022/10/09 00:46:47;;;;;;;23.00;13.63;;;13.80;99.90;;;;;;6139015;23;20020;-92
2022/10/09 00:49:25;;;;;;;23.33;14.18;;;13.80;99.90;;;;;;6139925;23;20005;-92
2022/10/09 00:51:56;;;;;;;24.17;14.27;;;13.80;99.90;;;;;;6139234;23;20015;-92
2022/10/09 00:54:26;;;;;;;25.20;15.43;;;13.80;99.90;;;;;;6139981;23;20009;-92
2022/10/09 00:56:54;;;;;;;30.05;15.68;;;13.70;99.90;;;;;;6140805;23;20038;-92
2022/10/09 00:59:22;;;;;;;28.10;14.75;;;13.70;99.90;;;;;;6139522;23;20005;-91
2022/10/09 01:01:48;;;;;;;23.02;15.15;;;13.70;99.90;;;;;;6138933;23;20017;-93
2022/10/09 01:04:14;;;;;;;28.35;16.35;;;13.80;99.90;;;;;;6139718;23;20001;-92
2022/10/09 01:07:25;;;;;;;38.75;19.50;;;13.80;99.90;;;;;;6139079;23;20522;-91
2022/10/09 01:10:16;;;;;;;59.15;26.30;;;13.80;99.90;;;;;;6138758;23;20443;-93
2022/10/09 01:12:54;;;;;;;46.17;22.38;;;13.80;99.90;;;;;;6131065;23;20021;-92
2022/10/09 01:15:34;;;;;;;50.13;24.90;;;13.80;99.90;;;;;;6132102;23;20024;-92
2022/10/09 01:18:28;;;;;;;42.75;21.75;;;13.80;99.90;;;;;;6156908;23;20351;-93
2022/10/09 01:21:10;;;;;;;38.27;20.13;;;13.80;99.90;;;;;;6157237;23;20048;-92
2022/10/09 01:23:52;;;;;;;48.72;23.60;;;13.90;99.90;;;;;;6132251;23;20017;-92
2022/10/09 01:26:54;;;;;;;56.22;24.23;;;13.90;99.90;;;;;;6132433;23;20384;-91
2022/10/09 01:29:29;;;;;;;57.35;24.92;;;13.90;99.90;;;;;;6132018;23;20014;-92
2022/10/09 01:31:57;;;;;;;47.28;23.63;;;13.80;99.90;;;;;;6132144;23;20005;-92
2022/10/09 01:34:25;;;;;;;45.47;22.55;;;13.80;99.90;;;;;;6132294;23;20037;-92
2022/10/09 01:36:58;;;;;;;45.67;23.73;;;13.80;99.90;;;;;;6133169;23;20332;-93
2022/10/09 01:39:29;;;;;;;45.08;23.35;;;13.80;99.90;;;;;;6132543;23;20013;-92
2022/10/09 01:41:56;;;;;;;50.67;23.00;;;13.80;99.90;;;;;;6132231;23;20010;-92
2022/10/09 01:44:27;;;;;;;53.75;26.38;;;13.70;99.90;;;;;;6131993;23;20006;-92
2022/10/09 01:46:55;;;;;;;47.33;23.85;;;13.70;99.90;;;;;;6132882;23;20036;-92
2022/10/09 01:49:58;;;;;;;44.28;22.83;;;13.70;99.90;;;;;;6132295;23;20005;-92
2022/10/09 01:52:25;;;;;;;45.70;24.67;;;13.80;99.90;;;;;;6132484;23;20092;-93
2022/10/09 01:54:58;;;;;;;48.33;26.33;;;13.80;99.90;;;;;;6156869;23;20021;-92
2022/10/09 01:57:49;;;;;;;47.70;23.20;;;13.90;99.90;;;;;;6132540;23;20021;-92
2022/10/09 02:00:16;;;;;;;41.58;24.05;;;13.80;99.90;;;;;;6132470;23;20011;-92
2022/10/09 02:02:44;;;;;;;45.50;24.30;;;13.80;99.90;;;;;;6132197;23;20006;-92
2022/10/09 02:05:19;;;;;;;36.40;20.75;;;13.70;99.90;;;;;;6132120;23;20013;-93
2022/10/09 02:07:46;;;;;;;35.80;20.23;;;13.70;99.90;;;;;;6132081;23;20014;-92
2022/10/09 02:10:14;;;;;;;33.22;19.98;;;13.70;99.90;;;;;;6131913;23;20005;-92
2022/10/09 02:12:48;;;;;;;32.45;18.50;;;13.60;99.90;;;;;;6137382;23;20012;-91
2022/10/09 02:15:15;;;;;;;30.42;18.13;;;13.60;99.90;;;;;;6136764;23;20024;-92
2022/10/09 02:17:48;;;;;;;32.95;17.65;;;13.60;99.90;;;;;;6136843;23;20009;-92
2022/10/09 02:20:27;;;;;;;28.93;17.67;;;13.50;99.90;;;;;;6136680;23;20009;-92
2022/10/09 02:22:56;;;;;;;31.33;16.60;;;13.50;99.90;;;;;;6136558;23;20021;-92
2022/10/09 02:25:25;;;;;;;31.25;16.92;;;13.40;99.90;;;;;;6136390;23;20001;-91
2022/10/09 02:27:52;;;;;;;26.50;16.15;;;13.30;99.90;;;;;;6136837;23;20108;-93
2022/10/09 02:30:20;;;;;;;27.27;15.80;;;13.20;99.90;;;;;;6136565;23;20040;-92
2022/10/09 02:32:52;;;;;;;29.60;16.27;;;13.10;99.90;;;;;;6136810;23;20008;-92
2022/10/09 02:35:20;;;;;;;23.45;15.30;;;13.00;99.90;;;;;;6137013;23;20368;-91
2022/10/09 02:37:48;;;;;;;29.08;15.85;;;13.00;99.90;;;;;;6136651;23;20008;-92
2022/10/09 02:40:17;;;;;;;25.10;15.70;;;12.90;99.90;;;;;;6136639;23;20020;-92
2022/10/09 02:42:44;;;;;;;32.20;17.00;;;12.90;99.90;;;;;;6136646;23;20005;-92
2022/10/09 02:45:10;;;;;;;29.42;16.40;;;12.90;99.90;;;;;;6136466;23;20005;-93
2022/10/09 02:47:37;;;;;;;34.22;16.98;;;12.80;99.90;;;;;;6136350;23;20112;-92
2022/10/09 02:50:04;;;;;;;36.00;20.60;;;12.80;99.90;;;;;;6136304;23;20017;-92
2022/10/09 02:52:31;;;;;;;41.25;24.02;;;12.90;99.90;;;;;;6136565;23;20040;-91
2022/10/09 02:54:57;;;;;;;47.03;27.10;;;12.90;99.90;;;;;;6137524;23;20028;-91
2022/10/09 02:57:24;;;;;;;59.95;30.73;;;12.90;99.90;;;;;;6137147;23;20016;-92
2022/10/09 02:59:50;;;;;;;64.45;30.75;;;12.90;99.90;;;;;;6136549;23;20012;-92
2022/10/09 03:02:20;;;;;;;62.28;30.23;;;12.80;99.90;;;;;;6136948;23;20001;-92
2022/10/09 03:04:46;;;;;;;95.38;33.45;;;12.80;99.90;;;;;;6136414;23;20009;-92
2022/10/09 03:07:13;;;;;;;118.10;36.70;;;12.70;99.90;;;;;;6136379;23;20088;-91
2022/10/09 03:09:40;;;;;;;58.97;33.30;;;12.70;99.90;;;;;;6136116;23;20005;-92
2022/10/09 03:12:06;;;;;;;63.42;32.97;;;12.80;99.90;;;;;;6135933;23;20025;-93
2022/10/09 03:14:34;;;;;;;59.45;33.35;;;12.70;99.90;;;;;;6131125;23;20032;-92
2022/10/09 03:17:00;;;;;;;57.92;32.00;;;12.70;99.90;;;;;;6106925;23;20009;-92
2022/10/09 03:19:27;;;;;;;60.75;33.60;;;12.70;99.90;;;;;;6107031;23;20014;-93
2022/10/09 03:21:53;;;;;;;55.60;29.80;;;12.80;99.90;;;;;;6106860;23;20076;-92
2022/10/09 03:24:19;;;;;;;59.08;30.70;;;12.80;99.90;;;;;;6107353;23;20041;-92
2022/10/09 03:26:46;;;;;;;54.10;28.77;;;12.70;99.90;;;;;;6101483;23;20006;-92
2022/10/09 03:29:12;;;;;;;54.17;29.80;;;12.70;99.90;;;;;;6100944;23;20009;-92
2022/10/09 03:31:42;;;;;;;48.70;27.05;;;12.80;99.90;;;;;;6100810;23;20013;-92
2022/10/09 03:34:11;;;;;;;51.53;27.55;;;12.90;99.90;;;;;;6076492;23;20014;-91
2022/10/09 03:36:38;;;;;;;40.08;22.42;;;12.90;99.90;;;;;;6077087;23;20010;-92
2022/10/09 03:39:04;;;;;;;26.77;16.50;;;12.90;99.90;;;;;;6077102;23;20016;-92
2022/10/09 03:41:34;;;;;;;24.70;15.38;;;12.90;99.90;;;;;;6101339;23;20494;-91
2022/10/09 03:44:01;;;;;;;21.98;14.00;;;12.90;99.90;;;;;;6101068;23;20101;-91
2022/10/09 03:46:27;;;;;;;23.15;14.52;;;12.90;99.90;;;;;;6100777;23;20021;-92
2022/10/09 03:48:54;;;;;;;22.05;13.48;;;12.90;99.90;;;;;;6076876;23;20040;-92
2022/10/09 03:51:20;;;;;;;26.92;14.80;;;12.90;99.90;;;;;;6076896;23;20065;-93
2022/10/09 03:53:47;;;;;;;26.33;14.68;;;12.90;99.90;;;;;;6100878;23;20018;-91
2022/10/09 03:56:13;;;;;;;28.52;15.90;;;13.00;99.90;;;;;;6100703;23;20555;-92
2022/10/09 03:58:40;;;;;;;23.55;15.35;;;13.10;99.90;;;;;;6077095;23;20006;-92
2022/10/09 04:01:06;;;;;;;25.48;15.05;;;13.20;99.90;;;;;;6077061;23;20010;-93
2022/10/09 04:03:33;;;;;;;23.73;14.52;;;13.20;99.90;;;;;;6108364;23;20010;-91
2022/10/09 04:06:00;;;;;;;21.85;13.80;;;13.20;99.90;;;;;;6106455;23;20006;-92
2022/10/09 04:08:35;;;;;;;21.05;12.27;;;13.20;99.90;;;;;;6106599;23;20318;-93
2022/10/09 04:11:02;;;;;;;19.15;13.00;;;13.10;99.90;;;;;;6107045;23;20005;-93
2022/10/09 04:13:29;;;;;;;20.38;13.15;;;13.10;99.90;;;;;;6145440;23;20049;-92
2022/10/09 04:15:58;;;;;;;19.27;12.57;;;13.10;99.90;;;;;;6136069;23;20013;-91
2022/10/09 04:18:25;;;;;;;18.17;12.15;;;13.10;99.90;;;;;;6136352;23;20009;-92
2022/10/09 04:20:55;;;;;;;18.55;10.77;;;13.20;99.90;;;;;;6136438;23;20043;-92
2022/10/09 04:23:26;;;;;;;14.68;10.07;;;13.20;99.90;;;;;;6136318;23;20008;-92
2022/10/09 04:25:55;;;;;;;13.40;9.80;;;13.30;99.90;;;;;;6136593;23;20064;-93
2022/10/09 04:28:22;;;;;;;15.80;10.75;;;13.20;99.90;;;;;;6136134;23;20084;-92
2022/10/09 04:30:49;;;;;;;14.38;9.23;;;13.20;99.90;;;;;;6137113;23;20031;-92
2022/10/09 04:33:19;;;;;;;11.70;9.13;;;13.20;99.90;;;;;;6136028;23;20021;-93
2022/10/09 04:35:51;;;;;;;11.60;8.02;;;13.10;99.90;;;;;;6136464;23;20392;-92
2022/10/09 04:38:19;;;;;;;12.40;8.80;;;13.20;99.90;;;;;;6137672;23;20009;-92
2022/10/09 04:40:59;;;;;;;11.80;8.48;;;13.10;99.90;;;;;;6135844;23;20335;-92
2022/10/09 04:43:27;;;;;;;17.38;10.07;;;13.20;99.90;;;;;;6160949;23;20005;-92
2022/10/09 04:45:54;;;;;;;13.00;9.00;;;13.20;99.90;;;;;;6136027;23;20013;-93
2022/10/09 04:48:22;;;;;;;21.52;12.05;;;13.20;99.90;;;;;;6138433;23;20008;-91
2022/10/09 04:50:49;;;;;;;47.95;15.38;;;13.20;99.90;;;;;;6140827;23;20008;-93
2022/10/09 04:53:18;;;;;;;73.03;17.10;;;13.20;99.90;;;;;;6139527;23;20015;-92
2022/10/09 04:55:45;;;;;;;82.80;19.42;;;13.20;99.90;;;;;;6139937;23;20020;-92
2022/10/09 04:58:13;;;;;;;87.97;19.50;;;13.10;99.90;;;;;;6138741;23;20020;-92
2022/10/09 05:01:04;;;;;;;90.45;18.95;;;13.10;99.90;;;;;;6137884;23;20339;-92
2022/10/09 05:03:30;;;;;;;96.28;22.25;;;13.10;99.90;;;;;;6162691;23;20009;-92
2022/10/09 05:06:01;;;;;;;124.13;22.85;;;13.10;99.90;;;;;;6138342;23;20068;-93
2022/10/09 05:08:31;;;;;;;164.68;24.17;;;13.10;99.90;;;;;;6137979;23;20015;-93
2022/10/09 05:11:06;;;;;;;199.43;28.02;;;13.10;99.90;;;;;;6138317;23;20013;-92
2022/10/09 05:13:36;;;;;;;150.50;25.75;;;13.10;99.90;;;;;;6134322;23;20021;-92
2022/10/09 05:16:08;;;;;;;53.88;22.15;;;13.30;99.90;;;;;;6108278;23;20014;-92
2022/10/09 05:18:35;;;;;;;42.85;21.13;;;13.40;99.90;;;;;;6108592;23;20014;-92
2022/10/09 05:21:05;;;;;;;36.58;20.05;;;13.50;99.90;;;;;;6109035;23;20009;-92
2022/10/09 05:23:31;;;;;;;34.92;19.27;;;13.60;99.90;;;;;;6107976;23;20069;-91
2022/10/09 05:26:01;;;;;;;37.03;18.67;;;13.70;99.90;;;;;;6105315;23;20009;-92
2022/10/09 05:28:28;;;;;;;43.42;19.05;;;13.90;99.90;;;;;;6108002;23;20029;-93
2022/10/09 05:30:58;;;;;;;31.63;16.98;;;14.10;99.90;;;;;;6108736;23;20013;-92
2022/10/09 05:33:28;;;;;;;32.95;17.10;;;14.20;99.90;;;;;;6097193;23;20010;-92
2022/10/09 05:36:01;;;;;;;25.75;14.68;;;14.30;99.90;;;;;;6077907;23;20010;-92
2022/10/09 05:38:28;;;;;;;26.67;15.27;;;14.30;99.90;;;;;;6083650;23;20082;-92
2022/10/09 05:41:03;;;;;;;30.50;14.90;;;14.30;99.90;;;;;;6112610;23;20006;-92
2022/10/09 05:43:54;;;;;;;27.13;16.15;;;14.40;99.90;;;;;;6136437;23;20021;-92
2022/10/09 05:46:23;;;;;;;25.30;13.70;;;14.70;99.90;;;;;;6103000;23;20010;-92
2022/10/09 05:48:54;;;;;;;23.45;14.27;;;15.10;99.90;;;;;;6102920;23;20101;-92
2022/10/09 05:51:43;;;;;;;23.10;13.80;;;15.30;99.90;;;;;;6102980;23;20064;-93
2022/10/09 05:54:15;;;;;;;20.33;13.40;;;15.70;99.90;;;;;;6102986;23;20017;-92
2022/10/09 05:56:43;;;;;;;19.58;13.27;;;16.00;99.90;;;;;;6106926;23;20022;-92
2022/10/09 05:59:13;;;;;;;21.17;13.30;;;16.30;99.90;;;;;;6106601;23;20464;-92
2022/10/09 06:01:47;;;;;;;19.00;13.45;;;16.70;99.90;;;;;;6105516;23;20014;-92
2022/10/09 06:04:22;;;;;;;22.15;14.85;;;17.00;99.90;;;;;;6124940;23;20019;-93
2022/10/09 06:06:49;;;;;;;21.17;13.45;;;17.40;99.90;;;;;;6138898;23;20017;-93
2022/10/09 06:09:21;;;;;;;18.40;12.77;;;17.70;99.90;;;;;;6142451;23;20009;-92
2022/10/09 06:11:50;;;;;;;17.17;13.60;;;17.80;99.90;;;;;;6139853;23;20016;-92
2022/10/09 06:14:16;;;;;;;18.25;13.70;;;17.90;99.90;;;;;;6138796;23;20021;-91
2022/10/09 06:31:44;;;;;;;;;;;;;;;;;;;;;
2022/10/09 06:45:07;;;;;;;10.20;9.25;;;21.40;99.90;;;;;;6245753;23;20351;-86
2022/10/09 06:47:34;;;;;;;10.98;10.18;;;21.50;99.90;;;;;;6220444;23;20062;-86
2022/10/09 06:50:02;;;;;;;10.18;9.48;;;21.80;99.90;;;;;;6221048;23;20456;-85
2022/10/09 06:52:29;;;;;;;10.23;9.52;;;22.30;99.90;;;;;;6196797;23;20008;-85
2022/10/09 06:54:55;;;;;;;10.40;9.75;;;22.40;99.90;;;;;;6194943;23;20446;-86
2022/10/09 06:57:22;;;;;;;10.50;9.80;;;22.40;99.90;;;;;;6220034;23;20004;-85
2022/10/09 06:59:50;;;;;;;11.25;10.55;;;22.60;99.90;;;;;;6195631;23;20012;-86
2022/10/09 07:02:18;;;;;;;11.55;10.85;;;22.80;99.90;;;;;;6195181;23;20397;-85
2022/10/09 07:04:47;;;;;;;12.50;11.50;;;23.00;99.90;;;;;;6220992;23;20008;-84
2022/10/09 07:07:14;;;;;;;12.55;11.30;;;23.10;99.90;;;;;;6220515;23;20130;-87
2022/10/09 07:09:41;;;;;;;11.95;10.95;;;23.00;99.90;;;;;;6221073;23;20004;-88
2022/10/09 07:12:08;;;;;;;12.20;11.30;;;22.70;99.90;;;;;;6195957;23;20000;-88
2022/10/09 07:14:35;;;;;;;13.35;11.23;;;22.30;99.90;;;;;;6220755;23;20019;-88
2022/10/09 07:17:02;;;;;;;14.65;11.88;;;23.00;99.90;;;;;;6195787;23;20004;-90
2022/10/09 07:19:29;;;;;;;14.48;13.05;;;23.10;99.90;;;;;;6195965;23;20012;-88
2022/10/09 07:21:55;;;;;;;14.25;12.02;;;23.30;99.90;;;;;;6195734;23;20004;-88
2022/10/09 07:24:24;;;;;;;14.18;12.82;;;23.40;99.90;;;;;;6195762;23;20035;-87
2022/10/09 07:26:51;;;;;;;14.27;13.05;;;23.50;99.90;;;;;;6195844;23;20005;-89
2022/10/09 07:29:19;;;;;;;16.55;14.98;;;23.70;99.90;;;;;;6195780;23;20008;-87
2022/10/09 07:31:46;;;;;;;15.68;14.25;;;24.10;99.90;;;;;;6195735;23;20449;-89
2022/10/09 07:34:12;;;;;;;14.43;13.30;;;24.00;99.90;;;;;;6195416;23;20004;-88
2022/10/09 07:36:48;;;;;;;18.60;15.50;;;24.10;99.90;;;;;;6220564;23;20058;-88
2022/10/09 07:39:18;;;;;;;16.23;14.77;;;24.40;99.90;;;;;;6195350;23;20008;-87
2022/10/09 07:41:46;;;;;;;15.88;14.50;;;24.20;99.90;;;;;;6195940;23;20038;-92
2022/10/09 07:44:13;;;;;;;16.27;15.00;;;24.70;99.90;;;;;;6190568;23;20147;-90
2022/10/09 07:46:40;;;;;;;16.10;15.00;;;24.60;99.90;;;;;;6190603;23;20124;-89
2022/10/09 07:49:07;;;;;;;15.93;14.85;;;24.40;99.90;;;;;;6190567;23;20012;-90
2022/10/09 07:51:34;;;;;;;15.18;14.27;;;24.30;99.90;;;;;;6190313;23;20009;-90
2022/10/09 07:54:01;;;;;;;14.63;13.65;;;24.40;99.90;;;;;;6190745;23;20050;-92
2022/10/09 07:56:31;;;;;;;15.57;14.43;;;24.60;99.90;;;;;;6190634;23;20020;-90
2022/10/09 07:59:01;;;;;;;15.77;14.60;;;24.40;99.90;;;;;;6190650;23;20011;-89
2022/10/09 08:01:30;;;;;;;14.90;14.05;;;24.50;99.90;;;;;;6190482;23;20019;-88
2022/10/09 08:03:58;;;;;;;15.13;14.18;;;24.50;99.90;;;;;;6190306;23;20012;-89
2022/10/09 08:06:26;;;;;;;15.68;14.52;;;24.50;99.90;;;;;;6190351;23;20015;-89
2022/10/09 08:08:58;;;;;;;15.43;14.35;;;24.50;99.90;;;;;;6190286;23;20009;-89
2022/10/09 08:11:28;;;;;;;14.93;13.85;;;24.50;99.90;;;;;;6190383;23;20027;-90
2022/10/09 08:13:55;;;;;;;16.10;14.80;;;24.60;99.90;;;;;;6189903;23;20005;-89
2022/10/09 08:16:25;;;;;;;15.30;14.25;;;24.70;99.90;;;;;;6190424;23;20023;-90
2022/10/09 08:19:00;;;;;;;14.93;14.10;;;24.50;99.90;;;;;;6190797;23;20012;-90
2022/10/09 08:21:27;;;;;;;14.55;13.63;;;24.20;99.90;;;;;;6191496;23;20016;-88
2022/10/09 08:23:58;;;;;;;15.45;14.40;;;24.30;99.90;;;;;;6192810;23;20093;-89
2022/10/09 08:26:28;;;;;;;15.23;14.32;;;24.60;99.90;;;;;;6192374;23;20090;-89
2022/10/09 08:29:01;;;;;;;14.95;13.82;;;24.70;99.90;;;;;;6192242;23;20013;-88
2022/10/09 08:31:28;;;;;;;14.85;13.88;;;24.90;99.90;;;;;;6192332;23;20083;-89
2022/10/09 08:33:57;;;;;;;14.75;13.75;;;25.20;99.90;;;;;;6192193;23;20008;-89
2022/10/09 08:37:01;;;;;;;15.75;14.65;;;25.40;99.90;;;;;;6192194;23;20016;-89
2022/10/09 08:39:29;;;;;;;15.32;14.38;;;25.50;99.90;;;;;;6192367;23;20009;-88
2022/10/09 08:42:02;;;;;;;16.15;14.90;;;25.50;99.90;;;;;;6192368;23;20386;-89
2022/10/09 08:44:48;;;;;;;15.95;14.85;;;25.60;99.90;;;;;;6191991;23;20135;-89
2022/10/09 08:47:26;;;;;;;16.63;15.60;;;25.90;99.90;;;;;;6192177;23;20015;-89
2022/10/09 08:50:12;;;;;;;16.65;15.60;;;26.10;99.90;;;;;;6192534;23;20008;-88
2022/10/09 08:53:12;;;;;;;16.55;15.52;;;25.90;99.90;;;;;;6192097;23;20014;-89
2022/10/09 08:55:52;;;;;;;16.60;15.52;;;25.70;99.90;;;;;;6192300;23;20016;-89
2022/10/09 08:58:20;;;;;;;16.75;15.50;;;25.40;99.90;;;;;;6192160;23;20005;-89
2022/10/09 09:00:54;;;;;;;16.65;15.52;;;25.40;99.90;;;;;;6192029;23;20012;-88
2022/10/09 09:03:44;;;;;;;17.20;15.80;;;25.60;99.90;;;;;;6192160;23;20461;-89
2022/10/09 09:06:19;;;;;;;16.20;15.00;;;25.20;99.90;;;;;;6192028;23;20004;-89
2022/10/09 09:09:24;;;;;;;16.25;15.20;;;25.10;99.90;;;;;;6192201;23;20095;-89
2022/10/09 09:12:00;;;;;;;16.85;15.80;;;24.90;99.90;;;;;;6192099;23;20012;-90
2022/10/09 09:14:50;;;;;;;16.30;15.30;;;24.70;99.90;;;;;;6191707;23;20013;-90
2022/10/09 09:17:48;;;;;;;16.08;15.13;;;24.90;99.90;;;;;;6192062;23;20008;-88
2022/10/09 09:20:36;;;;;;;16.70;15.60;;;25.40;99.90;;;;;;6192005;23;20020;-89
2022/10/09 09:23:08;;;;;;;16.67;15.75;;;25.30;99.90;;;;;;6191868;23;20012;-90
2022/10/09 09:25:41;;;;;;;16.75;15.73;;;25.40;99.90;;;;;;6191810;23;20032;-89
2022/10/09 09:28:29;;;;;;;17.15;16.05;;;25.80;99.90;;;;;;6191955;23;20031;-91
2022/10/09 09:31:19;;;;;;;16.88;15.68;;;26.10;99.90;;;;;;6191639;23;20040;-88
2022/10/09 09:34:21;;;;;;;17.10;16.00;;;26.10;99.90;;;;;;6191631;23;20004;-89
2022/10/09 09:36:59;;;;;;;17.13;16.02;;;26.20;99.90;;;;;;6192705;23;20016;-89
2022/10/09 09:39:29;;;;;;;17.05;15.95;;;26.20;99.90;;;;;;6191574;23;20008;-88
2022/10/09 09:42:18;;;;;;;17.30;16.35;;;26.20;99.90;;;;;;6191852;23;20015;-89
2022/10/09 09:45:06;;;;;;;17.73;16.42;;;26.10;99.90;;;;;;6191381;23;20346;-90
2022/10/09 09:47:56;;;;;;;18.08;16.95;;;25.80;99.90;;;;;;6191663;23;20505;-90
2022/10/09 09:50:38;;;;;;;18.75;17.02;;;25.60;99.90;;;;;;6191305;23;20004;-89
2022/10/09 09:53:24;;;;;;;18.70;17.40;;;25.90;99.90;;;;;;6191434;23;20088;-89
2022/10/09 09:55:53;;;;;;;17.50;16.40;;;26.10;99.90;;;;;;6191421;23;20136;-88
2022/10/09 09:58:21;;;;;;;18.02;16.77;;;26.20;99.90;;;;;;6191525;23;20347;-88
2022/10/09 10:00:57;;;;;;;17.65;16.55;;;26.50;99.90;;;;;;6191735;23;20009;-88
2022/10/09 10:03:24;;;;;;;19.05;17.88;;;26.50;99.90;;;;;;6191400;23;20509;-89
2022/10/09 10:05:55;;;;;;;18.42;17.27;;;26.10;99.90;;;;;;6191495;23;20053;-89
2022/10/09 10:08:23;;;;;;;18.15;16.85;;;25.80;99.90;;;;;;6191443;23;20012;-89
2022/10/09 10:10:54;;;;;;;18.13;16.88;;;25.70;99.90;;;;;;6191564;23;20056;-88
2022/10/09 10:13:44;;;;;;;17.70;16.52;;;25.50;99.90;;;;;;6191588;23;20092;-88
2022/10/09 10:16:36;;;;;;;18.42;17.33;;;25.30;99.90;;;;;;6191335;23;20013;-89
2022/10/09 10:19:05;;;;;;;18.15;16.88;;;25.60;99.90;;;;;;6191276;23;20288;-89
2022/10/09 10:21:48;;;;;;;17.92;16.73;;;25.70;99.90;;;;;;6191378;23;20013;-89
2022/10/09 10:24:22;;;;;;;18.15;16.90;;;25.70;99.90;;;;;;6191190;23;20013;-89
2022/10/09 10:26:59;;;;;;;18.38;17.20;;;26.00;99.90;;;;;;6191322;23;20008;-89
2022/10/09 10:29:43;;;;;;;18.10;16.98;;;26.50;99.90;;;;;;6191386;23;20017;-89
2022/10/09 10:32:31;;;;;;;18.30;17.15;;;26.80;99.90;;;;;;6191424;23;20004;-89
2022/10/09 10:35:18;;;;;;;19.02;17.73;;;26.70;99.90;;;;;;6191106;23;20043;-90
2022/10/09 10:38:06;;;;;;;18.67;17.58;;;26.80;99.90;;;;;;6191242;23;20442;-90
2022/10/09 10:40:59;;;;;;;18.05;16.75;;;26.90;99.90;;;;;;6191702;23;20334;-89
2022/10/09 10:43:38;;;;;;;16.48;15.38;;;26.80;99.90;;;;;;6191448;23;20450;-89
2022/10/09 10:46:29;;;;;;;15.15;14.15;;;26.20;99.90;;;;;;6191172;23;20015;-89
2022/10/09 10:48:59;;;;;;;14.85;13.95;;;25.40;99.90;;;;;;6191094;23;20486;-89
2022/10/09 10:52:07;;;;;;;15.00;14.00;;;25.10;99.90;;;;;;6190890;23;20016;-89
2022/10/09 10:54:50;;;;;;;14.10;13.10;;;25.20;99.90;;;;;;6190968;23;20083;-88
2022/10/09 10:57:41;;;;;;;14.70;13.70;;;25.20;99.90;;;;;;6191126;23;20395;-88
2022/10/09 11:00:11;;;;;;;14.55;13.20;;;25.20;99.90;;;;;;6190841;23;20412;-89
2022/10/09 11:03:15;;;;;;;13.88;12.98;;;24.80;99.90;;;;;;6191274;23;20079;-89
2022/10/09 11:06:08;;;;;;;13.65;12.40;;;24.70;99.90;;;;;;6190991;23;20040;-88
2022/10/09 11:09:23;;;;;;;12.52;11.63;;;24.70;99.90;;;;;;6190920;23;20040;-89
2022/10/09 11:12:13;;;;;;;11.57;10.70;;;25.00;99.90;;;;;;6048659;23;20429;-88
2022/10/09 11:15:12;;;;;;;11.48;10.57;;;25.10;99.90;;;;;;5987121;23;20462;-88
2022/10/09 11:18:10;;;;;;;12.55;11.50;;;25.00;99.90;;;;;;5987616;23;20442;-88
2022/10/09 11:21:06;;;;;;;12.40;11.30;;;24.80;99.90;;;;;;5952192;23;20119;-83
2022/10/09 11:23:54;;;;;;;13.30;12.10;;;24.80;99.90;;;;;;5987171;23;20099;-87
2022/10/09 11:26:36;;;;;;;12.57;11.30;;;24.90;99.90;;;;;;5964137;23;20207;-88
2022/10/09 11:29:16;;;;;;;12.07;11.20;;;24.90;99.90;;;;;;6010437;23;20016;-89
2022/10/09 11:31:49;;;;;;;12.65;11.75;;;24.50;99.90;;;;;;5986765;23;20120;-86
2022/10/09 11:34:26;;;;;;;12.38;11.57;;;24.60;99.90;;;;;;5963950;23;20110;-87
2022/10/09 11:36:58;;;;;;;12.18;11.18;;;24.90;99.90;;;;;;5987410;23;20008;-86
2022/10/09 11:39:29;;;;;;;12.60;11.80;;;24.60;99.90;;;;;;5964000;23;20011;-87
2022/10/09 11:41:58;;;;;;;12.45;11.65;;;24.40;99.90;;;;;;5963797;23;20436;-87
2022/10/09 11:45:01;;;;;;;12.52;11.63;;;24.60;99.90;;;;;;5963220;23;20043;-87
2022/10/09 11:47:41;;;;;;;12.98;11.52;;;24.90;99.90;;;;;;5988912;23;20459;-88
2022/10/09 11:50:21;;;;;;;12.23;11.30;;;24.70;99.90;;;;;;6048218;23;20010;-87
2022/10/09 11:53:07;;;;;;;13.73;12.63;;;24.60;99.90;;;;;;6132411;23;20009;-87
2022/10/09 11:55:35;;;;;;;13.52;12.32;;;24.20;99.90;;;;;;6135768;23;20403;-88
2022/10/09 11:58:39;;;;;;;14.60;12.10;;;24.30;99.90;;;;;;6135743;23;20028;-89
2022/10/09 12:01:46;;;;;;;13.70;12.67;;;24.50;99.90;;;;;;6136054;23;20009;-87
2022/10/09 12:04:17;;;;;;;13.20;12.13;;;24.90;99.90;;;;;;6136030;23;20240;-89
2022/10/09 12:06:54;;;;;;;13.77;12.77;;;25.20;99.90;;;;;;6136181;23;20009;-88
2022/10/09 12:09:27;;;;;;;14.50;13.30;;;25.20;99.90;;;;;;6160704;23;20335;-88
2022/10/09 12:11:58;;;;;;;14.77;13.55;;;24.80;99.90;;;;;;6136121;23;20013;-89
2022/10/09 12:14:28;;;;;;;13.07;12.38;;;24.80;99.90;;;;;;6135868;23;20021;-88
2022/10/09 12:16:55;;;;;;;13.70;12.77;;;24.90;99.90;;;;;;6136049;23;20052;-89
2022/10/09 12:19:37;;;;;;;14.05;12.90;;;24.80;99.90;;;;;;6136118;23;20437;-89
2022/10/09 12:22:35;;;;;;;13.95;12.60;;;24.80;99.90;;;;;;6135973;23;20009;-89
2022/10/09 12:25:40;;;;;;;13.88;12.70;;;24.40;99.90;;;;;;6129978;23;20015;-87
2022/10/09 12:28:25;;;;;;;13.48;12.38;;;24.70;99.90;;;;;;5991306;23;20011;-87
2022/10/09 12:30:52;;;;;;;12.95;11.95;;;24.70;99.90;;;;;;6015154;23;20014;-88
2022/10/09 12:33:36;;;;;;;12.98;12.00;;;24.40;99.90;;;;;;6015202;23;20003;-87
2022/10/09 12:36:15;;;;;;;12.27;11.35;;;23.90;99.90;;;;;;6014962;23;20019;-87
2022/10/09 12:38:42;;;;;;;11.77;10.82;;;24.00;99.90;;;;;;6014646;23;20100;-88
2022/10/09 12:41:36;;;;;;;11.95;11.15;;;24.10;99.90;;;;;;6014796;23;20039;-88
2022/10/09 12:44:11;;;;;;;12.20;11.30;;;23.70;99.90;;;;;;6014776;23;20101;-88
2022/10/09 12:46:38;;;;;;;11.73;10.90;;;23.70;99.90;;;;;;6014852;23;20007;-88
2022/10/09 12:49:23;;;;;;;12.85;11.90;;;23.70;99.90;;;;;;6014988;23;20438;-87
2022/10/09 12:51:59;;;;;;;12.77;11.77;;;23.60;99.90;;;;;;5991242;23;20119;-87
2022/10/09 12:54:34;;;;;;;11.48;10.77;;;23.80;99.90;;;;;;6015040;23;20023;-88
2022/10/09 12:57:01;;;;;;;12.45;11.65;;;23.80;99.90;;;;;;6014982;23;20127;-88
2022/10/09 12:59:29;;;;;;;12.88;12.05;;;23.70;99.90;;;;;;6015107;23;20003;-88
2022/10/09 13:02:19;;;;;;;12.95;11.75;;;23.60;99.90;;;;;;6014734;23;20433;-90
2022/10/09 13:04:59;;;;;;;11.85;11.07;;;23.60;99.90;;;;;;6092306;23;20009;-88
2022/10/09 13:07:28;;;;;;;12.73;11.45;;;23.40;99.90;;;;;;6165279;23;20067;-88
2022/10/09 13:10:05;;;;;;;12.55;11.52;;;23.30;99.90;;;;;;6191964;23;20000;-89
2022/10/09 13:12:34;;;;;;;12.77;11.73;;;23.30;99.90;;;;;;6166995;23;20013;-87
2022/10/09 13:15:07;;;;;;;13.18;12.30;;;23.40;99.90;;;;;;6191471;23;20016;-88
2022/10/09 13:17:39;;;;;;;12.45;11.50;;;23.70;99.90;;;;;;6192075;23;20004;-88
2022/10/09 13:20:18;;;;;;;13.18;12.25;;;23.80;99.90;;;;;;6166904;23;20112;-89
2022/10/09 13:23:03;;;;;;;12.63;11.73;;;23.70;99.90;;;;;;6167222;23;20005;-87
2022/10/09 13:25:40;;;;;;;12.32;11.52;;;23.80;99.90;;;;;;6166912;23;20138;-90
2022/10/09 13:28:11;;;;;;;12.68;11.77;;;23.90;99.90;;;;;;6191598;23;20043;-91
2022/10/09 13:30:37;;;;;;;12.93;12.02;;;23.80;99.90;;;;;;6166995;23;20055;-90